createdAt,value
2023-04-10T00:02:04.918Z,9.83
2023-04-10T00:04:40.782Z,9.83
2023-04-10T00:07:12.129Z,9.83
2023-04-10T00:09:40.692Z,9.82
2023-04-10T00:12:11.444Z,9.84
2023-04-10T00:14:42.052Z,9.84
2023-04-10T00:17:11.928Z,9.83
2023-04-10T00:19:42.416Z,9.80
2023-04-10T00:22:13.046Z,9.78
2023-04-10T00:24:44.682Z,9.78
2023-04-10T00:27:16.566Z,9.76
2023-04-10T00:29:45.702Z,9.73
2023-04-10T00:32:25.823Z,9.72
2023-04-10T00:34:58.755Z,9.73
2023-04-10T00:37:27.700Z,9.73
2023-04-10T00:39:56.454Z,9.69
2023-04-10T00:42:25.430Z,9.66
2023-04-10T00:44:54.684Z,9.65
2023-04-10T00:47:27.801Z,9.64
2023-04-10T00:49:59.866Z,9.66
2023-04-10T00:52:28.304Z,9.66
2023-04-10T00:55:00.131Z,9.66
2023-04-10T00:57:32.439Z,9.66
2023-04-10T01:00:01.356Z,9.67
2023-04-10T01:02:35.982Z,9.69
2023-04-10T01:05:06.624Z,9.71
2023-04-10T01:07:54.020Z,9.72
2023-04-10T01:10:52.071Z,9.75
2023-04-10T01:13:28.244Z,9.73
2023-04-10T01:16:11.741Z,9.71
2023-04-10T01:18:49.366Z,9.69
2023-04-10T01:21:19.109Z,9.67
2023-04-10T01:24:21.608Z,9.66
2023-04-10T01:27:32.129Z,9.67
2023-04-10T01:30:00.843Z,9.66
2023-04-10T01:32:29.667Z,9.65
2023-04-10T01:34:58.445Z,9.67
2023-04-10T01:37:31.401Z,9.66
2023-04-10T01:40:02.294Z,9.65
2023-04-10T01:42:34.382Z,9.65
2023-04-10T01:45:04.920Z,9.65
2023-04-10T01:47:34.439Z,9.64
2023-04-10T01:50:04.344Z,9.64
2023-04-10T01:52:33.028Z,9.66
2023-04-10T01:55:20.917Z,9.67
2023-04-10T01:57:56.070Z,9.68
2023-04-10T02:00:26.152Z,9.69
2023-04-10T02:02:55.148Z,9.68
2023-04-10T02:05:24.147Z,9.67
2023-04-10T02:08:24.203Z,9.67
2023-04-10T02:11:04.564Z,9.67
2023-04-10T02:13:33.193Z,9.68
2023-04-10T02:16:05.400Z,9.67
2023-04-10T02:18:39.070Z,9.67
2023-04-10T02:21:07.892Z,9.66
2023-04-10T02:23:40.400Z,9.65
2023-04-10T02:26:19.044Z,9.64
2023-04-10T02:28:51.334Z,9.63
2023-04-10T02:31:20.669Z,9.63
2023-04-10T02:33:50.590Z,9.64
2023-04-10T02:36:18.960Z,9.66
2023-04-10T02:38:48.591Z,9.65
2023-04-10T02:41:18.382Z,9.63
2023-04-10T02:43:47.245Z,9.64
2023-04-10T02:46:16.946Z,9.64
2023-04-10T02:48:45.379Z,9.64
2023-04-10T02:51:14.557Z,9.64
2023-04-10T02:53:54.616Z,9.65
2023-04-10T02:56:35.240Z,9.68
2023-04-10T02:59:06.780Z,9.68
2023-04-10T03:04:33.881Z,9.72
2023-04-10T03:07:06.592Z,9.72
2023-04-10T03:09:36.854Z,9.73
2023-04-10T03:12:05.346Z,9.73
2023-04-10T03:14:37.828Z,9.72
2023-04-10T03:17:05.453Z,9.70
2023-04-10T03:19:33.179Z,9.66
2023-04-10T03:22:01.978Z,9.63
2023-04-10T03:24:35.819Z,9.60
2023-04-10T03:27:04.154Z,9.60
2023-04-10T03:29:31.894Z,9.59
2023-04-10T03:32:01.881Z,9.58
2023-04-10T03:34:32.045Z,9.55
2023-04-10T03:36:59.444Z,9.54
2023-04-10T03:39:26.734Z,9.53
2023-04-10T03:41:57.120Z,9.54
2023-04-10T03:44:24.816Z,9.54
2023-04-10T03:46:56.321Z,9.57
2023-04-10T03:49:23.964Z,9.59
2023-04-10T03:51:55.486Z,9.61
2023-04-10T03:54:27.846Z,9.63
2023-04-10T03:56:56.811Z,9.63
2023-04-10T03:59:37.364Z,9.62
2023-04-10T04:02:08.125Z,9.60
2023-04-10T04:04:37.140Z,9.59
2023-04-10T04:07:23.502Z,9.60
2023-04-10T04:10:09.986Z,9.61
2023-04-10T04:13:10.704Z,9.64
2023-04-10T04:15:53.757Z,9.65
2023-04-10T04:18:42.687Z,9.64
2023-04-10T04:21:31.324Z,9.63
2023-04-10T04:24:18.909Z,9.66
2023-04-10T04:27:11.213Z,9.68
2023-04-10T04:29:59.454Z,9.72
2023-04-10T04:32:56.903Z,9.72
2023-04-10T04:35:43.406Z,9.68
2023-04-10T04:38:33.205Z,9.64
2023-04-10T04:41:20.618Z,9.63
2023-04-10T04:44:10.964Z,9.62
2023-04-10T04:47:04.808Z,9.64
2023-04-10T04:49:43.348Z,9.64
2023-04-10T04:52:31.993Z,9.63
2023-04-10T04:55:10.357Z,9.67
2023-04-10T04:57:56.765Z,9.70
2023-04-10T05:01:04.422Z,9.73
2023-04-10T05:03:52.020Z,9.75
2023-04-10T05:06:35.516Z,9.72
2023-04-10T05:09:20.098Z,9.72
2023-04-10T05:12:16.370Z,9.75
2023-04-10T05:14:52.686Z,9.77
2023-04-10T05:17:50.632Z,9.79
2023-04-10T05:20:48.844Z,9.83
2023-04-10T05:23:46.186Z,9.87
2023-04-10T05:26:29.511Z,9.90
2023-04-10T05:29:21.649Z,9.92
2023-04-10T05:32:13.592Z,9.95
2023-04-10T05:34:59.917Z,10.00
2023-04-10T05:37:35.028Z,10.04
2023-04-10T05:40:24.729Z,10.06
2023-04-10T05:43:03.048Z,10.10
2023-04-10T05:45:58.455Z,10.15
2023-04-10T05:48:48.397Z,10.18
2023-04-10T05:51:31.531Z,10.23
2023-04-10T05:54:35.556Z,10.28
2023-04-10T05:57:27.702Z,10.30
2023-04-10T05:59:56.624Z,10.30
2023-04-10T06:02:42.198Z,10.28
2023-04-10T06:05:17.476Z,10.28
2023-04-10T06:07:52.037Z,10.26
2023-04-10T06:10:20.804Z,10.21
2023-04-10T06:12:48.578Z,10.18
2023-04-10T06:15:23.903Z,10.19
2023-04-10T06:17:55.746Z,10.20
2023-04-10T06:20:25.761Z,10.17
2023-04-10T06:23:00.799Z,10.15
2023-04-10T06:25:29.678Z,10.15
2023-04-10T06:28:00.746Z,10.14
2023-04-10T06:30:33.550Z,10.11
2023-04-10T06:33:03.449Z,10.08
2023-04-10T06:35:32.358Z,10.08
2023-04-10T06:38:01.772Z,10.08
2023-04-10T06:40:30.526Z,10.07
2023-04-10T06:42:58.001Z,10.06
2023-04-10T06:45:32.448Z,10.05
2023-04-10T06:48:03.374Z,10.03
2023-04-10T06:50:35.606Z,10.04
2023-04-10T06:53:03.097Z,10.05
2023-04-10T06:55:31.606Z,10.05
2023-04-10T06:58:20.931Z,10.05
2023-04-10T07:00:48.205Z,10.04
2023-04-10T07:03:16.933Z,10.03
2023-04-10T07:05:44.377Z,10.06
2023-04-10T07:08:11.586Z,10.04
2023-04-10T07:10:43.251Z,10.00
2023-04-10T07:13:11.214Z,9.97
2023-04-10T07:15:41.156Z,9.96
2023-04-10T07:18:09.124Z,9.96
2023-04-10T07:20:38.384Z,9.95
2023-04-10T07:23:13.261Z,9.95
2023-04-10T07:25:43.546Z,9.96
2023-04-10T07:28:12.970Z,10.03
2023-04-10T07:30:43.398Z,10.07
2023-04-10T07:33:10.785Z,10.09
2023-04-10T07:35:40.426Z,10.10
2023-04-10T07:38:12.408Z,10.11
2023-04-10T07:40:40.681Z,10.15
2023-04-10T07:43:08.009Z,10.18
2023-04-10T07:45:39.392Z,10.21
2023-04-10T07:48:07.907Z,10.22
2023-04-10T07:50:39.365Z,10.20
2023-04-10T07:53:09.074Z,10.15
2023-04-10T07:55:43.824Z,10.10
2023-04-10T07:58:16.463Z,10.03
2023-04-10T08:00:47.891Z,9.91
2023-04-10T08:03:16.788Z,9.81
2023-04-10T08:05:45.254Z,9.76
2023-04-10T08:08:12.839Z,9.83
2023-04-10T08:10:44.271Z,9.93
2023-04-10T08:13:12.864Z,10.00
2023-04-10T08:15:41.411Z,10.04
2023-04-10T08:18:08.934Z,10.10
2023-04-10T08:20:42.833Z,10.13
2023-04-10T08:23:19.741Z,10.15
2023-04-10T08:25:52.476Z,10.16
2023-04-10T08:28:21.612Z,10.19
2023-04-10T08:30:55.757Z,10.23
2023-04-10T08:33:24.037Z,10.30
2023-04-10T08:35:57.951Z,10.45
2023-04-10T08:38:27.896Z,10.67
2023-04-10T08:40:57.783Z,11.02
2023-04-10T08:43:30.571Z,11.39
2023-04-10T08:45:57.665Z,11.73
2023-04-10T08:48:26.239Z,11.98
2023-04-10T08:50:54.168Z,12.12
2023-04-10T08:53:22.354Z,12.13
2023-04-10T08:55:50.287Z,12.08
2023-04-10T08:58:18.427Z,12.03
2023-04-10T09:00:46.663Z,11.98
2023-04-10T09:03:16.567Z,11.96
2023-04-10T09:05:45.534Z,11.95
2023-04-10T09:08:15.119Z,12.01
2023-04-10T09:10:47.103Z,12.09
2023-04-10T09:13:14.157Z,12.24
2023-04-10T09:16:08.282Z,12.44
2023-04-10T09:18:50.133Z,12.62
2023-04-10T09:21:19.428Z,12.72
2023-04-10T09:23:53.289Z,12.67
2023-04-10T09:26:47.252Z,12.53
2023-04-10T09:29:16.628Z,12.42
2023-04-10T09:31:44.530Z,12.38
2023-04-10T09:34:16.809Z,12.38
2023-04-10T09:36:56.464Z,12.35
2023-04-10T09:39:35.571Z,12.33
2023-04-10T09:42:03.467Z,12.31
2023-04-10T09:44:36.908Z,12.32
2023-04-10T09:47:22.810Z,12.33
2023-04-10T09:49:55.070Z,12.37
2023-04-10T09:52:31.839Z,12.42
2023-04-10T09:55:04.145Z,12.44
2023-04-10T09:57:34.247Z,12.41
2023-04-10T10:00:11.325Z,12.41
2023-04-10T10:02:41.908Z,12.44
2023-04-10T10:05:17.134Z,12.44
2023-04-10T10:07:52.245Z,12.45
2023-04-10T10:10:23.922Z,12.48
2023-04-10T10:13:01.740Z,12.55
2023-04-10T10:15:45.048Z,12.60
2023-04-10T10:18:56.062Z,12.66
2023-04-10T10:21:25.047Z,12.77
2023-04-10T10:24:02.403Z,12.88
2023-04-10T10:26:30.243Z,12.99
2023-04-10T10:28:59.019Z,13.09
2023-04-10T10:31:34.306Z,13.22
2023-04-10T10:34:06.900Z,13.27
2023-04-10T10:36:41.611Z,13.28
2023-04-10T10:39:32.787Z,13.36
2023-04-10T10:42:07.757Z,13.51
2023-04-10T10:44:43.828Z,13.64
2023-04-10T10:47:17.920Z,13.73
2023-04-10T10:49:59.145Z,13.78
2023-04-10T10:52:46.482Z,13.80
2023-04-10T10:55:36.471Z,13.74
2023-04-10T10:58:08.671Z,13.56
2023-04-10T11:00:51.329Z,13.48
2023-04-10T11:03:19.669Z,13.39
2023-04-10T11:05:57.213Z,13.34
2023-04-10T11:08:35.843Z,13.33
2023-04-10T11:11:24.055Z,13.37
2023-04-10T11:13:52.213Z,13.43
2023-04-10T11:16:54.627Z,13.48
2023-04-10T11:19:29.593Z,13.60
2023-04-10T11:21:58.965Z,13.78
2023-04-10T11:24:30.620Z,13.94
2023-04-10T11:26:58.393Z,14.07
2023-04-10T11:29:47.156Z,14.17
2023-04-10T11:32:14.790Z,14.33
2023-04-10T11:34:45.602Z,14.45
2023-04-10T11:37:23.775Z,14.57
2023-04-10T11:40:04.122Z,14.62
2023-04-10T11:42:32.131Z,14.67
2023-04-10T11:44:59.447Z,14.82
2023-04-10T11:47:27.750Z,14.99
2023-04-10T11:49:59.208Z,15.10
2023-04-10T11:52:26.733Z,15.20
2023-04-10T11:54:53.718Z,15.23
2023-04-10T11:57:20.969Z,15.24
2023-04-10T11:59:49.846Z,15.27
2023-04-10T12:02:17.138Z,15.43
2023-04-10T12:04:44.876Z,15.79
2023-04-10T12:07:13.302Z,16.15
2023-04-10T12:09:41.039Z,16.33
2023-04-10T12:12:14.889Z,16.35
2023-04-10T12:14:44.473Z,16.24
2023-04-10T12:17:16.282Z,15.95
2023-04-10T12:19:53.133Z,15.57
2023-04-10T12:22:20.586Z,15.24
2023-04-10T12:24:52.802Z,14.96
2023-04-10T12:27:21.374Z,14.70
2023-04-10T12:29:54.295Z,14.51
2023-04-10T12:32:24.637Z,14.44
2023-04-10T12:34:57.016Z,14.45
2023-04-10T12:37:26.082Z,14.49
2023-04-10T12:40:06.855Z,14.50
2023-04-10T12:42:45.480Z,14.56
2023-04-10T12:45:15.116Z,14.57
2023-04-10T12:47:48.644Z,14.53
2023-04-10T12:50:22.926Z,14.52
2023-04-10T12:53:11.602Z,14.55
2023-04-10T12:55:48.250Z,14.54
2023-04-10T12:58:19.514Z,14.47
2023-04-10T13:00:47.338Z,14.39
2023-04-10T13:03:18.164Z,14.33
2023-04-10T13:05:52.522Z,14.26
2023-04-10T13:08:22.350Z,14.21
2023-04-10T13:10:54.609Z,14.17
2023-04-10T13:13:24.045Z,14.16
2023-04-10T13:16:01.473Z,14.21
2023-04-10T13:18:30.181Z,14.24
2023-04-10T13:20:57.187Z,14.16
2023-04-10T13:23:26.053Z,14.03
2023-04-10T13:25:59.551Z,13.90
2023-04-10T13:28:31.979Z,13.81
2023-04-10T13:31:01.667Z,13.75
2023-04-10T13:33:30.392Z,13.68
2023-04-10T13:35:58.447Z,13.63
2023-04-10T13:38:27.850Z,13.64
2023-04-10T13:40:55.672Z,13.71
2023-04-10T13:43:24.403Z,13.76
2023-04-10T13:45:54.812Z,13.84
2023-04-10T13:48:27.129Z,13.94
2023-04-10T13:51:01.997Z,14.06
2023-04-10T13:53:32.368Z,14.17
2023-04-10T13:56:02.450Z,14.26
2023-04-10T13:58:33.719Z,14.33
2023-04-10T14:01:03.458Z,14.37
2023-04-10T14:03:36.066Z,14.40
2023-04-10T14:06:05.357Z,14.53
2023-04-10T14:08:35.041Z,14.66
2023-04-10T14:11:02.595Z,14.75
2023-04-10T14:13:31.413Z,14.82
2023-04-10T14:16:04.457Z,14.87
2023-04-10T14:18:36.346Z,14.87
2023-04-10T14:21:08.408Z,14.87
2023-04-10T14:23:37.690Z,14.88
2023-04-10T14:26:07.003Z,14.87
2023-04-10T14:28:38.490Z,14.81
2023-04-10T14:31:09.928Z,14.72
2023-04-10T14:33:41.045Z,14.61
2023-04-10T14:36:11.305Z,14.52
2023-04-10T14:38:50.085Z,14.43
2023-04-10T14:41:17.552Z,14.35
2023-04-10T14:43:47.852Z,14.31
2023-04-10T14:46:18.760Z,14.29
2023-04-10T14:48:46.344Z,14.28
2023-04-10T14:51:19.739Z,14.29
2023-04-10T14:53:47.126Z,14.30
2023-04-10T14:56:16.003Z,14.30
2023-04-10T14:58:43.606Z,14.31
2023-04-10T15:01:11.664Z,14.30
2023-04-10T15:03:53.059Z,14.30
2023-04-10T15:06:22.820Z,14.33
2023-04-10T15:08:50.511Z,14.35
2023-04-10T15:11:22.581Z,14.36
2023-04-10T15:13:54.257Z,14.34
2023-04-10T15:16:21.838Z,14.31
2023-04-10T15:18:54.280Z,14.29
2023-04-10T15:21:21.513Z,14.27
2023-04-10T15:23:49.283Z,14.23
2023-04-10T15:26:21.337Z,14.21
2023-04-10T15:28:49.416Z,14.17
2023-04-10T15:31:16.939Z,14.13
2023-04-10T15:33:53.997Z,14.11
2023-04-10T15:36:25.597Z,14.10
2023-04-10T15:39:01.580Z,14.08
2023-04-10T15:41:32.750Z,14.06
2023-04-10T15:44:09.113Z,14.04
2023-04-10T15:46:37.371Z,14.02
2023-04-10T15:49:12.147Z,14.00
2023-04-10T15:51:43.425Z,13.97
2023-04-10T15:54:14.549Z,13.94
2023-04-10T15:56:45.103Z,13.91
2023-04-10T15:59:22.867Z,13.89
2023-04-10T16:01:51.784Z,13.86
2023-04-10T16:04:24.745Z,13.83
2023-04-10T16:06:58.490Z,13.81
2023-04-10T16:09:28.437Z,13.78
2023-04-10T16:12:13.132Z,13.76
2023-04-10T16:14:42.898Z,13.73
2023-04-10T16:17:11.965Z,13.70
2023-04-10T16:20:01.672Z,13.64
2023-04-10T16:22:31.160Z,13.59
2023-04-10T16:24:59.427Z,13.54
2023-04-10T16:27:26.677Z,13.49
2023-04-10T16:29:55.644Z,13.44
2023-04-10T16:32:30.403Z,13.38
2023-04-10T16:35:27.118Z,13.33
2023-04-10T16:38:07.787Z,13.26
2023-04-10T16:40:39.083Z,13.20
2023-04-10T16:43:09.415Z,13.13
2023-04-10T16:45:37.038Z,13.07
2023-04-10T16:48:20.447Z,13.01
2023-04-10T16:50:48.672Z,12.96
2023-04-10T16:53:22.228Z,12.92
2023-04-10T16:56:13.978Z,12.88
2023-04-10T16:58:47.677Z,12.85
2023-04-10T17:01:42.203Z,12.83
2023-04-10T17:04:18.416Z,12.80
2023-04-10T17:07:05.098Z,12.77
2023-04-10T17:09:43.389Z,12.74
2023-04-10T17:12:14.116Z,12.69
2023-04-10T17:14:53.663Z,12.65
2023-04-10T17:17:21.983Z,12.59
2023-04-10T17:19:50.969Z,12.55
2023-04-10T17:22:20.194Z,12.52
2023-04-10T17:24:52.864Z,12.49
2023-04-10T17:27:23.332Z,12.47
2023-04-10T17:29:51.242Z,12.45
2023-04-10T17:32:18.429Z,12.42
2023-04-10T17:34:46.355Z,12.40
2023-04-10T17:37:22.948Z,12.37
2023-04-10T17:39:56.953Z,12.35
2023-04-10T17:42:27.290Z,12.32
2023-04-10T17:44:56.493Z,12.28
2023-04-10T17:47:25.608Z,12.23
2023-04-10T17:49:53.085Z,12.17
2023-04-10T17:52:20.274Z,12.11
2023-04-10T17:54:50.227Z,12.05
2023-04-10T17:57:19.810Z,12.00
2023-04-10T17:59:49.930Z,11.96
2023-04-10T18:02:18.003Z,11.91
2023-04-10T18:04:45.604Z,11.88
2023-04-10T18:07:21.868Z,11.83
2023-04-10T18:09:53.149Z,11.79
2023-04-10T18:12:24.312Z,11.76
2023-04-10T18:14:58.275Z,11.73
2023-04-10T18:17:27.097Z,11.69
2023-04-10T18:20:00.529Z,11.65
2023-04-10T18:22:31.189Z,11.61
2023-04-10T18:25:07.775Z,11.56
2023-04-10T18:27:51.630Z,11.53
2023-04-10T18:30:33.284Z,11.49
2023-04-10T18:33:05.963Z,11.45
2023-04-10T18:35:34.721Z,11.43
2023-04-10T18:38:04.589Z,11.39
2023-04-10T18:40:47.088Z,11.35
2023-04-10T18:43:18.493Z,11.31
2023-04-10T18:45:47.809Z,11.26
2023-04-10T18:48:18.397Z,11.21
2023-04-10T18:50:46.602Z,11.17
2023-04-10T18:53:20.364Z,11.12
2023-04-10T18:55:53.909Z,11.09
2023-04-10T18:58:30.285Z,11.05
2023-04-10T19:00:58.026Z,11.01
2023-04-10T19:03:27.293Z,10.98
2023-04-10T19:06:01.230Z,10.97
2023-04-10T19:08:30.722Z,10.98
2023-04-10T19:10:58.179Z,10.99
2023-04-10T19:13:26.716Z,10.98
2023-04-10T19:15:57.083Z,10.98
2023-04-10T19:18:24.541Z,10.97
2023-04-10T19:20:53.309Z,10.96
2023-04-10T19:23:22.256Z,10.94
2023-04-10T19:25:55.315Z,10.92
2023-04-10T19:28:34.220Z,10.89
2023-04-10T19:31:21.505Z,10.87
2023-04-10T19:33:49.355Z,10.84
2023-04-10T19:36:18.252Z,10.83
2023-04-10T19:38:48.438Z,10.82
2023-04-10T19:41:18.737Z,10.81
2023-04-10T19:43:48.448Z,10.79
2023-04-10T19:46:18.285Z,10.77
2023-04-10T19:48:49.047Z,10.75
2023-04-10T19:51:16.103Z,10.72
2023-04-10T19:53:45.005Z,10.69
2023-04-10T19:56:14.295Z,10.66
2023-04-10T19:58:44.399Z,10.63
2023-04-10T20:01:13.006Z,10.60
2023-04-10T20:03:43.423Z,10.56
2023-04-10T20:06:14.102Z,10.53
2023-04-10T20:08:42.854Z,10.49
2023-04-10T20:11:10.343Z,10.47
2023-04-10T20:13:38.795Z,10.45
2023-04-10T20:16:07.953Z,10.42
2023-04-10T20:18:38.011Z,10.39
2023-04-10T20:21:09.286Z,10.34
2023-04-10T20:23:40.431Z,10.29
2023-04-10T20:26:08.960Z,10.25
2023-04-10T20:28:40.757Z,10.23
2023-04-10T20:31:17.362Z,10.20
2023-04-10T20:33:48.496Z,10.16
2023-04-10T20:36:17.338Z,10.13
2023-04-10T20:38:44.974Z,10.10
2023-04-10T20:41:19.418Z,10.06
2023-04-10T20:43:49.111Z,10.01
2023-04-10T20:46:18.747Z,9.95
2023-04-10T20:48:45.854Z,9.91
2023-04-10T20:51:14.561Z,9.88
2023-04-10T20:53:42.578Z,9.85
2023-04-10T20:56:10.138Z,9.81
2023-04-10T20:58:39.420Z,9.76
2023-04-10T21:01:15.883Z,9.71
2023-04-10T21:03:44.951Z,9.66
2023-04-10T21:06:14.513Z,9.61
2023-04-10T21:08:51.920Z,9.56
2023-04-10T21:11:21.670Z,9.52
2023-04-10T21:13:49.910Z,9.49
2023-04-10T21:16:19.787Z,9.48
2023-04-10T21:18:47.105Z,9.47
2023-04-10T21:21:19.345Z,9.45
2023-04-10T21:23:46.389Z,9.41
2023-04-10T21:26:16.940Z,9.38
2023-04-10T21:28:43.903Z,9.35
2023-04-10T21:31:12.473Z,9.32
2023-04-10T21:33:45.227Z,9.31
2023-04-10T21:36:12.481Z,9.29
2023-04-10T21:38:40.065Z,9.29
2023-04-10T21:41:09.602Z,9.27
2023-04-10T21:43:40.457Z,9.25
2023-04-10T21:46:15.533Z,9.21
2023-04-10T21:48:47.336Z,9.16
2023-04-10T21:51:16.295Z,9.14
2023-04-10T21:53:44.261Z,9.12
2023-04-10T21:56:11.689Z,9.11
2023-04-10T21:58:51.660Z,9.09
2023-04-10T22:01:22.808Z,9.08
2023-04-10T22:03:50.296Z,9.06
2023-04-10T22:06:19.664Z,9.03
2023-04-10T22:08:47.427Z,9.00
2023-04-10T22:11:14.383Z,8.97
2023-04-10T22:13:43.760Z,8.95
2023-04-10T22:16:11.230Z,8.94
2023-04-10T22:18:38.365Z,8.92
2023-04-10T22:21:12.838Z,8.90
2023-04-10T22:23:40.090Z,8.89
2023-04-10T22:26:08.529Z,8.87
2023-04-10T22:28:36.991Z,8.85
2023-04-10T22:31:05.454Z,8.82
2023-04-10T22:33:32.964Z,8.81
2023-04-10T22:36:04.802Z,8.78
2023-04-10T22:38:31.868Z,8.74
2023-04-10T22:41:01.268Z,8.73
2023-04-10T22:43:28.790Z,8.72
2023-04-10T22:45:56.004Z,8.70
2023-04-10T22:48:27.066Z,8.69
2023-04-10T22:50:54.090Z,8.66
2023-04-10T22:53:23.999Z,8.64
2023-04-10T22:55:51.461Z,8.62
2023-04-10T22:58:22.345Z,8.60
2023-04-10T23:00:50.625Z,8.60
2023-04-10T23:03:18.353Z,8.58
2023-04-10T23:05:47.024Z,8.56
2023-04-10T23:08:20.090Z,8.54
2023-04-10T23:10:48.269Z,8.53
2023-04-10T23:13:18.569Z,8.52
2023-04-10T23:15:54.036Z,8.51
2023-04-10T23:18:21.288Z,8.47
2023-04-10T23:20:56.226Z,8.44
2023-04-10T23:23:23.787Z,8.41
2023-04-10T23:25:58.681Z,8.38
2023-04-10T23:28:28.501Z,8.36
2023-04-10T23:30:56.004Z,8.33
2023-04-10T23:33:24.293Z,8.30
2023-04-10T23:35:54.933Z,8.28
2023-04-10T23:38:23.176Z,8.27
2023-04-10T23:40:51.832Z,8.26
2023-04-10T23:43:25.674Z,8.24
2023-04-10T23:45:53.869Z,8.21
2023-04-10T23:48:22.602Z,8.19
2023-04-10T23:50:51.276Z,8.14
2023-04-10T23:53:20.506Z,8.10
2023-04-10T23:55:50.032Z,8.08
2023-04-10T23:58:17.045Z,8.06
